createdAt,value
2018-07-02T00:01:07.115Z,80.00
2018-07-02T00:03:37.270Z,80.20
2018-07-02T00:06:17.254Z,80.70
2018-07-02T00:08:47.138Z,81.00
2018-07-02T00:11:22.314Z,81.20
2018-07-02T00:13:55.365Z,81.40
2018-07-02T00:16:25.204Z,81.60
2018-07-02T00:18:54.514Z,81.80
2018-07-02T00:21:23.614Z,82.20
2018-07-02T00:23:53.202Z,82.60
2018-07-02T00:26:22.618Z,82.80
2018-07-02T00:28:52.345Z,83.20
2018-07-02T00:31:22.462Z,83.50
2018-07-02T00:33:51.962Z,83.80
2018-07-02T00:36:21.254Z,84.20
2018-07-02T00:38:51.559Z,84.30
2018-07-02T00:41:20.405Z,84.60
2018-07-02T00:43:49.867Z,84.90
2018-07-02T00:46:19.375Z,85.10
2018-07-02T00:48:49.259Z,85.30
2018-07-02T00:51:18.401Z,85.90
2018-07-02T00:53:48.186Z,85.90
2018-07-02T00:56:17.434Z,86.30
2018-07-02T00:58:49.150Z,86.80
2018-07-02T01:01:20.358Z,87.00
2018-07-02T01:03:51.573Z,87.00
2018-07-02T01:06:21.139Z,87.50
2018-07-02T01:08:51.122Z,87.50
2018-07-02T01:11:20.654Z,87.80
2018-07-02T01:13:51.258Z,88.00
2018-07-02T01:16:20.258Z,88.20
2018-07-02T01:18:50.094Z,88.60
2018-07-02T01:21:20.984Z,88.80
2018-07-02T01:23:51.223Z,88.80
2018-07-02T01:26:22.102Z,88.90
2018-07-02T01:28:51.102Z,89.20
2018-07-02T01:31:20.927Z,89.30
2018-07-02T01:33:50.395Z,89.60
2018-07-02T01:36:21.074Z,90.00
2018-07-02T01:38:50.090Z,90.00
2018-07-02T01:41:20.530Z,90.10
2018-07-02T01:43:50.038Z,90.30
2018-07-02T01:46:20.259Z,90.40
2018-07-02T01:48:49.058Z,90.50
2018-07-02T01:51:19.015Z,90.60
2018-07-02T01:53:48.158Z,90.50
2018-07-02T01:56:16.982Z,90.80
2018-07-02T01:58:47.009Z,90.80
2018-07-02T02:01:17.021Z,90.90
2018-07-02T02:03:46.056Z,91.10
2018-07-02T02:06:15.055Z,91.10
2018-07-02T02:08:44.451Z,91.20
2018-07-02T02:11:14.042Z,91.30
2018-07-02T02:13:43.042Z,91.40
2018-07-02T02:16:12.602Z,91.50
2018-07-02T02:18:43.206Z,91.60
2018-07-02T02:21:14.955Z,91.60
2018-07-02T02:23:44.254Z,91.70
2018-07-02T02:26:14.575Z,91.80
2018-07-02T02:28:44.901Z,91.80
2018-07-02T02:31:14.118Z,91.90
2018-07-02T02:33:45.109Z,92.00
2018-07-02T02:36:15.382Z,92.00
2018-07-02T02:38:45.259Z,92.10
2018-07-02T02:41:14.954Z,92.00
2018-07-02T02:43:44.529Z,92.10
2018-07-02T02:46:14.160Z,92.10
2018-07-02T02:48:44.034Z,92.00
2018-07-02T02:51:13.046Z,91.90
2018-07-02T02:53:42.856Z,91.90
2018-07-02T02:56:11.920Z,91.80
2018-07-02T02:58:41.899Z,91.80
2018-07-02T03:01:10.897Z,91.70
2018-07-02T03:03:40.141Z,91.60
2018-07-02T03:06:09.835Z,91.50
2018-07-02T03:08:43.455Z,91.50
2018-07-02T03:11:13.710Z,91.40
2018-07-02T03:13:43.095Z,91.30
2018-07-02T03:16:12.814Z,91.30
2018-07-02T03:18:41.903Z,91.20
2018-07-02T03:21:12.985Z,91.10
2018-07-02T03:23:42.308Z,91.00
2018-07-02T03:26:12.515Z,90.80
2018-07-02T03:28:41.476Z,90.70
2018-07-02T03:31:10.923Z,90.50
2018-07-02T03:33:41.517Z,90.40
2018-07-02T03:36:11.746Z,90.40
2018-07-02T03:38:42.073Z,90.30
2018-07-02T03:41:12.026Z,90.10
2018-07-02T03:43:41.923Z,89.60
2018-07-02T03:46:12.054Z,89.50
2018-07-02T03:48:40.911Z,89.10
2018-07-02T03:51:12.681Z,88.70
2018-07-02T03:53:43.950Z,88.80
2018-07-02T03:56:14.851Z,88.70
2018-07-02T03:58:44.914Z,88.30
2018-07-02T04:01:15.672Z,87.80
2018-07-02T04:03:45.195Z,87.80
2018-07-02T04:06:16.362Z,88.10
2018-07-02T04:08:45.897Z,87.40
2018-07-02T04:11:15.382Z,87.60
2018-07-02T04:13:47.150Z,87.00
2018-07-02T04:16:17.611Z,86.40
2018-07-02T04:18:48.011Z,86.90
2018-07-02T04:23:54.650Z,85.80
2018-07-02T04:26:24.850Z,85.90
2018-07-02T04:28:53.994Z,85.70
2018-07-02T04:31:24.908Z,84.60
2018-07-02T04:33:55.129Z,84.30
2018-07-02T04:36:25.706Z,83.90
2018-07-02T04:38:55.996Z,83.70
2018-07-02T04:41:27.602Z,83.20
2018-07-02T04:43:56.958Z,83.30
2018-07-02T04:46:26.688Z,82.90
2018-07-02T04:48:56.847Z,82.50
2018-07-02T04:51:26.055Z,82.60
2018-07-02T04:53:55.191Z,82.40
2018-07-02T04:58:57.031Z,80.80
2018-07-02T05:01:27.696Z,80.50
2018-07-02T05:03:57.975Z,79.30
2018-07-02T05:06:27.965Z,78.70
2018-07-02T05:08:59.679Z,77.70
2018-07-02T05:11:31.346Z,77.30
2018-07-02T05:14:02.641Z,76.80
2018-07-02T05:16:32.589Z,76.40
2018-07-02T05:19:01.938Z,75.30
2018-07-02T05:21:32.795Z,74.50
2018-07-02T05:24:04.586Z,74.20
2018-07-02T05:26:35.021Z,74.10
2018-07-02T05:29:04.805Z,74.30
2018-07-02T05:31:36.546Z,75.20
2018-07-02T05:34:07.397Z,75.20
2018-07-02T05:36:37.686Z,75.40
2018-07-02T05:39:10.008Z,75.40
2018-07-02T05:41:40.141Z,75.60
2018-07-02T05:44:11.834Z,74.50
2018-07-02T05:46:42.269Z,75.30
2018-07-02T05:49:13.994Z,75.40
2018-07-02T05:51:44.334Z,74.50
2018-07-02T05:54:16.016Z,74.50
2018-07-02T05:56:48.394Z,73.30
2018-07-02T05:59:17.845Z,73.10
2018-07-02T06:01:48.542Z,73.10
2018-07-02T06:04:19.784Z,73.10
2018-07-02T06:06:50.886Z,73.50
2018-07-02T06:09:22.507Z,72.80
2018-07-02T06:11:53.154Z,72.80
2018-07-02T06:14:22.681Z,73.50
2018-07-02T06:16:52.864Z,73.10
2018-07-02T06:19:23.331Z,73.50
2018-07-02T06:21:53.512Z,73.00
2018-07-02T06:24:24.283Z,73.30
2018-07-02T06:26:56.088Z,73.30
2018-07-02T06:29:25.914Z,71.90
2018-07-02T06:31:54.906Z,70.80
2018-07-02T06:34:24.510Z,69.40
2018-07-02T06:36:54.596Z,69.80
2018-07-02T06:39:24.534Z,69.90
2018-07-02T06:41:53.797Z,70.20
2018-07-02T06:44:22.798Z,70.10
2018-07-02T06:46:52.374Z,68.50
2018-07-02T06:49:21.170Z,69.70
2018-07-02T06:51:50.882Z,69.70
2018-07-02T06:54:21.743Z,68.70
2018-07-02T06:56:53.355Z,65.70
2018-07-02T06:59:23.802Z,65.60
2018-07-02T07:01:54.595Z,65.40
2018-07-02T07:04:24.471Z,65.80
2018-07-02T07:06:55.790Z,64.80
2018-07-02T07:09:27.398Z,63.60
2018-07-02T07:11:58.631Z,62.20
2018-07-02T07:14:28.558Z,61.70
2018-07-02T07:16:57.770Z,61.30
2018-07-02T07:19:28.519Z,60.80
2018-07-02T07:21:58.409Z,60.50
2018-07-02T07:24:29.803Z,60.10
2018-07-02T07:27:01.667Z,60.60
2018-07-02T07:29:32.927Z,59.80
2018-07-02T07:32:02.818Z,58.20
2018-07-02T07:34:32.643Z,56.60
2018-07-02T07:37:03.711Z,56.30
2018-07-02T07:39:33.765Z,55.90
2018-07-02T07:42:04.665Z,55.60
2018-07-02T07:44:36.307Z,55.60
2018-07-02T07:47:05.847Z,55.90
2018-07-02T07:49:36.367Z,56.00
2018-07-02T07:52:07.621Z,53.90
2018-07-02T07:54:41.898Z,53.30
2018-07-02T07:57:12.680Z,53.50
2018-07-02T07:59:42.837Z,53.50
2018-07-02T08:02:12.609Z,53.10
2018-07-02T08:04:43.254Z,52.60
2018-07-02T08:07:14.695Z,52.50
2018-07-02T08:09:45.114Z,52.10
2018-07-02T08:12:15.267Z,51.50
2018-07-02T08:14:45.722Z,51.50
2018-07-02T08:17:15.434Z,52.10
2018-07-02T08:19:44.867Z,52.40
2018-07-02T08:22:14.584Z,48.90
2018-07-02T08:24:46.269Z,47.30
2018-07-02T08:27:16.756Z,47.70
2018-07-02T08:29:45.834Z,48.50
2018-07-02T08:32:20.850Z,45.90
2018-07-02T08:34:51.042Z,45.90
2018-07-02T08:37:21.947Z,45.80
2018-07-02T08:39:52.101Z,45.40
2018-07-02T08:42:21.591Z,44.40
2018-07-02T08:44:51.375Z,44.10
2018-07-02T08:47:20.667Z,44.60
2018-07-02T08:49:54.406Z,44.30
2018-07-02T08:52:25.106Z,43.70
2018-07-02T08:54:54.633Z,42.30
2018-07-02T08:57:24.434Z,41.80
2018-07-02T08:59:55.267Z,41.80
2018-07-02T09:02:26.015Z,41.10
2018-07-02T09:04:56.775Z,41.20
2018-07-02T09:07:27.636Z,41.40
2018-07-02T09:09:58.581Z,41.30
2018-07-02T09:12:28.635Z,39.60
2018-07-02T09:14:59.162Z,39.60
2018-07-02T09:17:29.857Z,39.60
2018-07-02T09:19:59.379Z,38.00
2018-07-02T09:22:30.015Z,37.50
2018-07-02T09:25:00.391Z,38.00
2018-07-02T09:27:32.647Z,36.90
2018-07-02T09:30:02.664Z,36.20
2018-07-02T09:32:33.281Z,36.30
2018-07-02T09:35:05.030Z,37.20
2018-07-02T09:37:34.531Z,36.30
2018-07-02T09:40:05.330Z,35.80
2018-07-02T09:42:36.170Z,36.90
2018-07-02T09:45:08.456Z,36.60
2018-07-02T09:47:39.755Z,35.30
2018-07-02T09:50:13.576Z,35.60
2018-07-02T09:52:44.374Z,36.20
2018-07-02T09:55:15.594Z,35.60
2018-07-02T09:57:44.370Z,35.00
2018-07-02T10:00:14.275Z,34.90
2018-07-02T10:02:44.472Z,34.80
2018-07-02T10:05:15.235Z,33.60
2018-07-02T10:07:46.774Z,33.10
2018-07-02T10:10:16.902Z,33.40
2018-07-02T10:12:48.096Z,32.90
2018-07-02T10:15:24.415Z,31.10
2018-07-02T10:17:54.849Z,31.60
2018-07-02T10:20:26.177Z,31.00
2018-07-02T10:22:56.294Z,31.70
2018-07-02T10:25:27.081Z,31.70
2018-07-02T10:27:59.234Z,31.60
2018-07-02T10:30:30.173Z,31.10
2018-07-02T10:33:00.669Z,31.70
2018-07-02T10:35:29.582Z,31.50
2018-07-02T10:37:59.395Z,29.80
2018-07-02T10:40:31.050Z,29.20
2018-07-02T10:43:02.218Z,29.60
2018-07-02T10:45:33.466Z,30.30
2018-07-02T10:48:03.619Z,29.60
2018-07-02T10:50:34.495Z,29.60
2018-07-02T10:53:05.022Z,28.70
2018-07-02T10:55:34.686Z,29.80
2018-07-02T10:58:05.475Z,30.30
2018-07-02T11:00:36.230Z,29.70
2018-07-02T11:03:07.083Z,30.00
2018-07-02T11:05:37.363Z,28.70
2018-07-02T11:08:07.158Z,28.70
2018-07-02T11:13:14.716Z,28.00
2018-07-02T11:15:49.515Z,28.30
2018-07-02T11:18:20.361Z,28.30
2018-07-02T11:20:52.038Z,28.60
2018-07-02T11:23:21.734Z,28.60
2018-07-02T11:25:51.374Z,27.70
2018-07-02T11:28:21.342Z,28.40
2018-07-02T11:30:52.441Z,28.90
2018-07-02T11:33:23.227Z,29.20
2018-07-02T11:35:54.940Z,29.10
2018-07-02T11:38:25.281Z,29.20
2018-07-02T11:40:56.246Z,29.50
2018-07-02T11:43:29.496Z,29.60
2018-07-02T11:45:59.367Z,29.50
2018-07-02T11:48:30.652Z,29.40
2018-07-02T11:51:00.987Z,28.90
2018-07-02T11:53:31.218Z,29.30
2018-07-02T11:56:02.036Z,29.20
2018-07-02T11:58:33.378Z,29.60
2018-07-02T12:01:03.824Z,29.20
2018-07-02T12:03:35.378Z,29.30
2018-07-02T12:06:06.852Z,29.20
2018-07-02T12:08:38.370Z,29.30
2018-07-02T12:11:07.250Z,29.20
2018-07-02T12:13:36.426Z,29.00
2018-07-02T12:16:07.389Z,29.70
2018-07-02T12:18:39.368Z,29.90
2018-07-02T12:21:09.202Z,30.00
2018-07-02T12:23:40.754Z,30.00
2018-07-02T12:26:12.443Z,29.90
2018-07-02T12:28:43.423Z,30.00
2018-07-02T12:31:14.309Z,30.30
2018-07-02T12:33:45.261Z,30.40
2018-07-02T12:36:19.769Z,31.80
2018-07-02T12:38:49.331Z,32.00
2018-07-02T12:41:19.613Z,32.50
2018-07-02T12:43:51.126Z,32.70
2018-07-02T12:46:22.782Z,32.90
2018-07-02T12:48:53.042Z,33.50
2018-07-02T12:51:22.135Z,34.10
2018-07-02T12:53:52.973Z,32.70
2018-07-02T12:56:23.247Z,32.80
2018-07-02T12:58:53.919Z,32.30
2018-07-02T13:01:28.259Z,32.40
2018-07-02T13:03:58.346Z,32.40
2018-07-02T13:06:28.523Z,32.90
2018-07-02T13:09:01.107Z,32.30
2018-07-02T13:11:32.972Z,32.50
2018-07-02T13:14:04.231Z,32.40
2018-07-02T13:16:34.870Z,32.30
2018-07-02T13:19:05.696Z,32.70
2018-07-02T13:21:36.307Z,32.10
2018-07-02T13:24:05.907Z,32.00
2018-07-02T13:26:36.765Z,32.00
2018-07-02T13:29:07.205Z,32.40
2018-07-02T13:31:36.288Z,32.80
2018-07-02T13:34:06.553Z,32.80
2018-07-02T13:36:35.882Z,32.90
2018-07-02T13:39:07.790Z,33.00
2018-07-02T13:41:38.140Z,33.40
2018-07-02T13:44:07.883Z,33.90
2018-07-02T13:46:38.313Z,34.10
2018-07-02T13:49:08.789Z,34.30
2018-07-02T13:51:39.746Z,33.90
2018-07-02T13:54:08.942Z,32.80
2018-07-02T13:56:39.856Z,33.00
2018-07-02T13:59:10.186Z,34.10
2018-07-02T14:01:40.066Z,34.90
2018-07-02T14:04:10.902Z,36.30
2018-07-02T14:06:43.766Z,35.90
2018-07-02T14:09:15.303Z,35.90
2018-07-02T14:11:46.656Z,35.80
2018-07-02T14:14:15.835Z,36.20
2018-07-02T14:16:44.983Z,35.50
2018-07-02T14:19:15.998Z,36.30
2018-07-02T14:21:45.090Z,38.50
2018-07-02T14:24:16.002Z,40.40
2018-07-02T14:26:46.551Z,42.00
2018-07-02T14:29:16.210Z,42.30
2018-07-02T14:31:46.711Z,43.10
2018-07-02T14:34:17.933Z,43.40
2018-07-02T14:36:47.976Z,44.70
2018-07-02T14:39:17.706Z,44.00
2018-07-02T14:41:49.455Z,43.90
2018-07-02T14:44:21.100Z,43.30
2018-07-02T14:46:51.001Z,42.30
2018-07-02T14:49:21.497Z,42.20
2018-07-02T14:51:51.994Z,42.60
2018-07-02T14:54:22.615Z,43.20
2018-07-02T14:56:52.830Z,41.40
2018-07-02T14:59:22.800Z,41.50
2018-07-02T15:01:51.842Z,40.40
2018-07-02T15:04:22.043Z,40.00
2018-07-02T15:06:53.843Z,39.60
2018-07-02T15:09:24.842Z,39.90
2018-07-02T15:11:56.047Z,39.70
2018-07-02T15:14:26.007Z,40.40
2018-07-02T15:16:56.363Z,40.40
2018-07-02T15:19:28.949Z,40.40
2018-07-02T15:22:00.285Z,41.20
2018-07-02T15:24:30.422Z,41.10
2018-07-02T15:27:00.227Z,41.30
2018-07-02T15:29:33.582Z,41.00
2018-07-02T15:32:04.865Z,41.50
2018-07-02T15:34:33.635Z,41.80
2018-07-02T15:37:03.070Z,42.00
2018-07-02T15:39:34.425Z,42.70
2018-07-02T15:42:04.652Z,43.00
2018-07-02T15:44:33.522Z,43.10
2018-07-02T15:47:03.483Z,44.70
2018-07-02T15:49:33.540Z,45.30
2018-07-02T15:52:04.735Z,45.80
2018-07-02T15:54:36.463Z,46.00
2018-07-02T15:57:07.514Z,46.20
2018-07-02T15:59:39.233Z,46.60
2018-07-02T16:02:14.666Z,47.00
2018-07-02T16:04:45.917Z,47.50
2018-07-02T16:07:15.498Z,47.50
2018-07-02T16:09:47.547Z,47.60
2018-07-02T16:12:19.396Z,47.60
2018-07-02T16:14:51.145Z,47.70
2018-07-02T16:17:22.498Z,47.90
2018-07-02T16:19:52.696Z,48.30
2018-07-02T16:22:21.958Z,48.30
2018-07-02T16:24:51.522Z,48.70
2018-07-02T16:27:20.580Z,49.00
2018-07-02T16:29:53.095Z,48.40
2018-07-02T16:32:28.317Z,48.40
2018-07-02T16:34:58.417Z,48.70
2018-07-02T16:37:29.650Z,49.30
2018-07-02T16:39:59.749Z,49.30
2018-07-02T16:42:30.106Z,49.40
2018-07-02T16:45:00.462Z,49.30
2018-07-02T16:47:31.386Z,49.80
2018-07-02T16:50:03.368Z,50.00
2018-07-02T16:52:32.638Z,50.40
2018-07-02T16:55:03.387Z,50.50
2018-07-02T16:57:32.613Z,50.90
2018-07-02T17:00:01.366Z,51.40
2018-07-02T17:02:31.279Z,51.40
2018-07-02T17:05:01.759Z,51.80
2018-07-02T17:07:30.654Z,52.10
2018-07-02T17:10:00.199Z,52.30
2018-07-02T17:12:30.846Z,52.60
2018-07-02T17:15:02.643Z,52.70
2018-07-02T17:17:33.322Z,52.90
2018-07-02T17:20:03.750Z,53.10
2018-07-02T17:22:35.461Z,53.30
2018-07-02T17:25:05.153Z,53.50
2018-07-02T17:27:34.458Z,53.70
2018-07-02T17:30:03.455Z,53.90
2018-07-02T17:32:33.546Z,54.50
2018-07-02T17:35:03.831Z,54.70
2018-07-02T17:37:34.719Z,54.70
2018-07-02T17:40:05.886Z,54.80
2018-07-02T17:42:36.443Z,55.00
2018-07-02T17:45:06.899Z,55.50
2018-07-02T17:47:37.611Z,56.60
2018-07-02T17:50:08.444Z,56.20
2018-07-02T17:52:38.527Z,56.80
2018-07-02T17:55:09.927Z,56.60
2018-07-02T17:57:40.091Z,57.40
2018-07-02T18:00:10.419Z,57.20
2018-07-02T18:02:40.066Z,57.70
2018-07-02T18:05:11.881Z,57.50
2018-07-02T18:07:41.330Z,58.20
2018-07-02T18:10:14.026Z,57.50
2018-07-02T18:12:43.990Z,57.40
2018-07-02T18:15:14.234Z,57.60
2018-07-02T18:17:45.546Z,57.60
2018-07-02T18:20:16.510Z,57.20
2018-07-02T18:22:47.335Z,57.50
2018-07-02T18:25:17.209Z,57.40
2018-07-02T18:27:46.654Z,57.70
2018-07-02T18:30:16.189Z,58.10
2018-07-02T18:32:48.073Z,58.20
2018-07-02T18:35:18.445Z,58.30
2018-07-02T18:37:48.657Z,58.80
2018-07-02T18:40:18.173Z,58.50
2018-07-02T18:42:48.347Z,58.20
2018-07-02T18:45:19.122Z,58.10
2018-07-02T18:47:49.811Z,58.20
2018-07-02T18:50:20.587Z,57.70
2018-07-02T18:52:50.547Z,57.20
2018-07-02T18:55:19.426Z,57.40
2018-07-02T18:57:50.685Z,57.20
2018-07-02T19:00:20.214Z,56.50
2018-07-02T19:02:50.662Z,56.40
2018-07-02T19:05:21.892Z,55.80
2018-07-02T19:07:53.554Z,55.70
2018-07-02T19:10:27.312Z,55.90
2018-07-02T19:12:57.478Z,55.90
2018-07-02T19:15:27.923Z,56.00
2018-07-02T19:17:58.411Z,56.50
2018-07-02T19:20:28.275Z,56.60
2018-07-02T19:22:59.027Z,56.70
2018-07-02T19:25:30.290Z,56.90
2018-07-02T19:28:00.228Z,56.90
2018-07-02T19:30:31.011Z,57.10
2018-07-02T19:33:01.166Z,57.20
2018-07-02T19:35:31.587Z,57.20
2018-07-02T19:38:01.411Z,57.20
2018-07-02T19:40:32.627Z,57.50
2018-07-02T19:43:07.202Z,57.60
2018-07-02T19:45:40.067Z,57.70
2018-07-02T19:48:14.974Z,57.70
2018-07-02T19:50:50.516Z,57.70
2018-07-02T19:53:21.270Z,57.90
2018-07-02T19:55:51.387Z,58.20
2018-07-02T19:58:21.882Z,58.00
2018-07-02T20:00:51.388Z,57.80
2018-07-02T20:03:21.512Z,57.90
2018-07-02T20:05:50.635Z,57.90
2018-07-02T20:08:20.945Z,57.90
2018-07-02T20:10:58.155Z,57.90
2018-07-02T20:13:34.405Z,58.00
2018-07-02T20:16:05.126Z,58.20
2018-07-02T20:18:36.869Z,58.20
2018-07-02T20:21:06.011Z,58.10
2018-07-02T20:23:36.115Z,58.00
2018-07-02T20:26:05.466Z,58.00
2018-07-02T20:28:37.247Z,58.10
2018-07-02T20:31:10.130Z,58.20
2018-07-02T20:33:44.395Z,58.20
2018-07-02T20:36:15.582Z,57.90
2018-07-02T20:38:45.795Z,58.00
2018-07-02T20:41:15.209Z,58.20
2018-07-02T20:43:44.763Z,58.20
2018-07-02T20:46:16.467Z,58.20
2018-07-02T20:48:46.635Z,58.60
2018-07-02T20:51:18.328Z,58.50
2018-07-02T20:53:49.987Z,58.50
2018-07-02T20:56:19.315Z,58.40
2018-07-02T20:58:50.430Z,58.40
2018-07-02T21:01:21.680Z,58.50
2018-07-02T21:03:53.482Z,58.80
2018-07-02T21:09:31.806Z,59.40
2018-07-02T21:12:01.652Z,59.10
2018-07-02T21:14:33.876Z,59.20
2018-07-02T21:17:05.294Z,59.40
2018-07-02T21:19:36.538Z,58.90
2018-07-02T21:22:08.383Z,58.80
2018-07-02T21:24:39.890Z,58.70
2018-07-02T21:27:41.152Z,58.80
2018-07-02T21:30:11.275Z,59.00
2018-07-02T21:32:40.818Z,58.90
2018-07-02T21:35:12.373Z,58.80
2018-07-02T21:37:42.694Z,58.80
2018-07-02T21:40:12.121Z,58.20
2018-07-02T21:42:41.143Z,58.00
2018-07-02T21:45:11.591Z,57.90
2018-07-02T21:47:42.199Z,57.80
2018-07-02T21:50:12.802Z,57.80
2018-07-02T21:52:44.178Z,57.80
2018-07-02T21:55:12.916Z,57.80
2018-07-02T21:57:42.031Z,57.90
2018-07-02T22:00:13.123Z,58.20
2018-07-02T22:02:44.029Z,58.00
2018-07-02T22:05:15.336Z,58.20
2018-07-02T22:07:47.179Z,58.20
2018-07-02T22:10:20.257Z,58.50
2018-07-02T22:12:50.482Z,58.50
2018-07-02T22:15:21.159Z,58.20
2018-07-02T22:17:51.192Z,58.20
2018-07-02T22:20:20.269Z,58.30
2018-07-02T22:22:50.970Z,58.30
2018-07-02T22:25:22.280Z,58.10
2018-07-02T22:27:51.659Z,57.70
2018-07-02T22:30:21.535Z,57.20
2018-07-02T22:32:51.936Z,57.00
2018-07-02T22:35:23.979Z,56.60
2018-07-02T22:37:57.135Z,56.50
2018-07-02T22:40:28.278Z,56.60
2018-07-02T22:42:57.707Z,56.70
2018-07-02T22:45:28.922Z,56.80
2018-07-02T22:48:00.117Z,57.00
2018-07-02T22:50:29.909Z,57.10
2018-07-02T22:53:01.466Z,57.30
2018-07-02T22:55:32.538Z,57.50
2018-07-02T22:58:03.670Z,57.80
2018-07-02T23:00:34.078Z,58.00
2018-07-02T23:03:04.697Z,58.20
2018-07-02T23:05:34.859Z,58.50
2018-07-02T23:08:05.248Z,58.80
2018-07-02T23:10:36.510Z,58.80
2018-07-02T23:13:06.667Z,59.00
2018-07-02T23:15:36.867Z,59.20
2018-07-02T23:18:05.998Z,59.30
2018-07-02T23:20:37.535Z,59.50
2018-07-02T23:23:08.706Z,59.70
2018-07-02T23:25:37.895Z,59.90
2018-07-02T23:28:07.270Z,60.00
2018-07-02T23:30:36.654Z,60.40
2018-07-02T23:33:06.481Z,60.80
2018-07-02T23:35:36.914Z,61.10
2018-07-02T23:38:07.300Z,61.50
2018-07-02T23:40:36.807Z,61.70
2018-07-02T23:43:07.167Z,62.10
2018-07-02T23:45:36.639Z,62.20
2018-07-02T23:48:07.340Z,62.60
2018-07-02T23:50:41.326Z,62.60
2018-07-02T23:53:12.880Z,62.90
2018-07-02T23:55:43.079Z,63.10
2018-07-02T23:58:12.635Z,63.20
